Stehekin, Washington
Current Conditions -  °F | °C
As of 1:53 AM on Wednesday 22 Oct 2014 (Local Time) from KOMK Reporting Station
Clear Clear  
Wind Chill: 44°   Ceiling: Unl
Heat Index: 48°   Visibility: 10mi
Dew Point: 40°   Wind: 8mph
Humidity: 74%   Direction: 220°SW
Pressure: 29.88"   Gusts: NA
Location:  48.31°N, 120.65°W
Report Text: KOMK 220853Z AUTO 22007KT 10SM CLR 09/04 A2988 RMK AO2 SLP118 T00890044 55003
Loading
Personal Weather Stations






























Interactive Weather Map
Tropical Storm Tracking
New forecast layout! Learn more

10-Day Weather Forecast

Advertisements
Track Severe Weather on mobile